Time;durP1;ratioP1;P1;durP2;ratioP2;P2;SDS_P1;SDS_P2;PMS_P1;PMS_P2;Temp;Humidity;BMP_temperature;BMP_pressure;BME280_temperature;BME280_humidity;BME280_pressure;Samples;Min_cycle;Max_cycle;Signal;HPM_P1;HPM_P2
2022/01/23 00:02:15;;;;;;;;;;;8.40;95.00;;;;;;4983299;28;20385;-87
2022/01/23 00:04:40;;;;;;;;;;;8.40;95.00;;;;;;4970666;28;19914;-87
2022/01/23 00:07:09;;;;;;;;;;;8.40;95.00;;;;;;4984748;28;20382;-87
2022/01/23 00:09:35;;;;;;;;;;;8.40;95.00;;;;;;4959386;28;19924;-87
2022/01/23 00:12:05;;;;;;;;;;;8.40;95.00;;;;;;4984249;28;19945;-87
2022/01/23 00:17:20;;;;;;;;;;;8.40;95.00;;;;;;4988049;28;20065;-87
2022/01/23 00:19:47;;;;;;;;;;;8.40;95.00;;;;;;4977394;28;20004;-87
2022/01/23 00:22:13;;;;;;;;;;;8.40;95.10;;;;;;4979956;28;19921;-87
2022/01/23 00:30:27;;;;;;;;;;;8.40;95.00;;;;;;4992102;28;19955;-87
2022/01/23 00:32:53;;;;;;;;;;;8.40;95.10;;;;;;4975790;28;20075;-87
2022/01/23 00:35:19;;;;;;;;;;;8.40;95.10;;;;;;4978872;28;19964;-87
2022/01/23 00:37:44;;;;;;;;;;;8.40;95.40;;;;;;4987759;28;20791;-87
2022/01/23 00:40:11;;;;;;;;;;;8.40;95.10;;;;;;4971980;28;20332;-87
2022/01/23 00:42:36;;;;;;;;;;;8.30;95.00;;;;;;4976129;28;19936;-87
2022/01/23 00:45:30;;;;;;;;;;;8.40;95.00;;;;;;4987010;28;20035;-87
2022/01/23 00:47:54;;;;;;;;;;;8.30;95.00;;;;;;5004556;28;20073;-87
2022/01/23 00:50:19;;;;;;;;;;;8.30;95.00;;;;;;4995946;28;19914;-87
2022/01/23 00:52:45;;;;;;;;;;;8.30;95.00;;;;;;4986218;28;19921;-87
2022/01/23 00:55:10;;;;;;;;;;;8.30;95.00;;;;;;4981303;28;19917;-87
2022/01/23 00:57:36;;;;;;;;;;;8.30;95.00;;;;;;4966790;28;20236;-87
2022/01/23 01:00:04;;;;;;;;;;;8.30;95.00;;;;;;4987487;28;19917;-87
2022/01/23 01:02:30;;;;;;;;;;;8.30;95.00;;;;;;4961917;28;20063;-87
2022/01/23 01:04:55;;;;;;;;;;;8.30;95.00;;;;;;4982821;28;19913;-87
2022/01/23 01:07:21;;;;;;;;;;;8.30;95.30;;;;;;4975407;28;20271;-87
2022/01/23 01:09:50;;;;;;;;;;;8.30;95.00;;;;;;4957404;28;20039;-87
2022/01/23 01:12:20;;;;;;;;;;;8.30;95.00;;;;;;4986232;28;20072;-87
2022/01/23 01:31:25;;;;;;;;;;;8.30;95.10;;;;;;4988903;28;20405;-87
2022/01/23 01:34:32;;;;;;;;;;;8.30;95.10;;;;;;4987812;28;20016;-87
2022/01/23 01:36:48;;;;;;;;;;;8.30;95.10;;;;;;4985730;28;20256;-87
2022/01/23 01:39:16;;;;;;;;;;;8.30;95.10;;;;;;4990912;28;19964;-87
2022/01/23 01:41:42;;;;;;;;;;;8.30;95.10;;;;;;4985048;28;19917;-86
2022/01/23 01:44:08;;;;;;;;;;;8.30;95.10;;;;;;4973548;28;19973;-87
2022/01/23 01:46:34;;;;;;;;;;;8.30;95.10;;;;;;4958671;28;19964;-87
2022/01/23 01:48:59;;;;;;;;;;;8.30;95.10;;;;;;4981843;28;19913;-87
2022/01/23 01:51:30;;;;;;;;;;;8.20;95.10;;;;;;4968709;28;19913;-87
2022/01/23 01:54:02;;;;;;;;;;;8.20;95.10;;;;;;4982425;28;19913;-87
2022/01/23 01:56:35;;;;;;;;;;;8.30;95.10;;;;;;4973505;28;19913;-87
2022/01/23 01:59:19;;;;;;;;;;;8.30;95.10;;;;;;4969240;28;19924;-87
2022/01/23 02:17:12;;;;;;;;;;;8.20;95.10;;;;;;4991569;28;19976;-87
2022/01/23 02:22:39;;;;;;;;;;;8.20;95.20;;;;;;5005905;28;20590;-87
2022/01/23 02:55:11;;;;;;;;;;;8.20;95.20;;;;;;4962402;28;20005;-87
2022/01/23 02:57:51;;;;;;;;;;;8.10;95.20;;;;;;4959076;28;19992;-87
2022/01/23 03:00:19;;;;;;;;;;;8.10;95.20;;;;;;4939512;28;19941;-87
2022/01/23 03:02:50;;;;;;;;;;;8.10;95.20;;;;;;4944707;28;20398;-87
2022/01/23 03:08:05;;;;;;;;;;;8.10;95.20;;;;;;4978621;28;20089;-87
2022/01/23 03:10:45;;;;;;;;;;;8.10;95.20;;;;;;4969879;28;20293;-87
2022/01/23 03:31:43;;;;;;;;;;;8.10;95.20;;;;;;4963150;28;20328;-87
2022/01/23 03:34:09;;;;;;;;;;;8.10;95.20;;;;;;4949703;28;19944;-87
2022/01/23 03:36:36;;;;;;;;;;;8.10;95.20;;;;;;4942043;28;19925;-87
2022/01/23 03:39:02;;;;;;;;;;;8.10;95.20;;;;;;4981236;28;20401;-87
2022/01/23 03:41:28;;;;;;;;;;;8.10;95.20;;;;;;5006463;28;19932;-87
2022/01/23 03:43:53;;;;;;;;;;;8.10;95.20;;;;;;4974597;28;20421;-87
2022/01/23 03:51:47;;;;;;;;;;;8.10;95.20;;;;;;4990692;28;20573;-87
2022/01/23 03:54:13;;;;;;;;;;;8.10;95.20;;;;;;4984453;28;19914;-87
2022/01/23 03:56:38;;;;;;;;;;;8.10;95.20;;;;;;4972435;28;20852;-87
2022/01/23 03:59:04;;;;;;;;;;;8.10;95.20;;;;;;4976133;28;20012;-87
2022/01/23 04:01:30;;;;;;;;;;;8.10;95.20;;;;;;4969689;28;20361;-87
2022/01/23 04:04:00;;;;;;;;;;;8.10;95.20;;;;;;4984113;28;20438;-87
2022/01/23 04:06:26;;;;;;;;;;;8.10;95.20;;;;;;4971601;28;19951;-87
2022/01/23 04:08:51;;;;;;;;;;;8.10;95.20;;;;;;4977914;28;20098;-87
2022/01/23 04:11:17;;;;;;;;;;;8.10;95.20;;;;;;4982898;28;19952;-87
2022/01/23 04:13:51;;;;;;;;;;;8.10;95.20;;;;;;4967855;28;20105;-87
2022/01/23 04:45:09;;;;;;;;;;;8.00;95.20;;;;;;4982277;28;19913;-86
2022/01/23 05:00:18;;;;;;;;;;;8.00;95.20;;;;;;4984294;28;19960;-87
2022/01/23 05:04:05;;;;;;;;;;;7.90;95.30;;;;;;4973893;28;20023;-87
2022/01/23 05:05:33;;;;;;;;;;;7.90;95.30;;;;;;4971637;28;19924;-87
2022/01/23 05:08:03;;;;;;;;;;;7.90;95.30;;;;;;5011624;28;19917;-87
2022/01/23 05:10:29;;;;;;;;;;;7.90;95.30;;;;;;4986291;28;19918;-87
2022/01/23 05:12:54;;;;;;;;;;;7.90;95.30;;;;;;4980610;28;20337;-87
2022/01/23 05:15:20;;;;;;;;;;;8.00;95.30;;;;;;4965787;28;19921;-87
2022/01/23 05:17:47;;;;;;;;;;;7.90;95.30;;;;;;4959427;28;19914;-87
2022/01/23 05:20:14;;;;;;;;;;;7.90;95.30;;;;;;4976182;28;20325;-87
2022/01/23 05:22:52;;;;;;;;;;;7.90;95.30;;;;;;4963713;28;20113;-87
2022/01/23 05:25:25;;;;;;;;;;;7.90;95.30;;;;;;4986098;28;19931;-87
2022/01/23 05:27:54;;;;;;;;;;;7.90;95.30;;;;;;4997559;28;19922;-87
2022/01/23 05:30:20;;;;;;;;;;;7.90;95.30;;;;;;4974574;28;19921;-87
2022/01/23 05:32:46;;;;;;;;;;;8.00;95.40;;;;;;4976965;28;20148;-87
2022/01/23 05:35:13;;;;;;;;;;;8.00;95.30;;;;;;4995286;28;19992;-87
2022/01/23 05:37:38;;;;;;;;;;;8.00;95.30;;;;;;4965345;28;19921;-87
2022/01/23 05:40:05;;;;;;;;;;;8.00;95.30;;;;;;4982717;28;19968;-87
2022/01/23 05:42:30;;;;;;;;;;;7.90;95.30;;;;;;4978864;28;19926;-87
2022/01/23 05:44:56;;;;;;;;;;;7.90;95.30;;;;;;4962009;28;19924;-87
2022/01/23 05:47:21;;;;;;;;;;;7.90;95.30;;;;;;4981925;28;19940;-87
2022/01/23 05:49:47;;;;;;;;;;;7.90;95.30;;;;;;4989308;28;19936;-87
2022/01/23 05:52:13;;;;;;;;;;;8.00;95.30;;;;;;4980869;28;20417;-87
2022/01/23 05:54:39;;;;;;;;;;;7.90;95.30;;;;;;4979098;28;20546;-87
2022/01/23 05:57:04;;;;;;;;;;;7.90;95.30;;;;;;4988216;28;20226;-87
2022/01/23 05:59:30;;;;;;;;;;;7.90;95.30;;;;;;4970684;28;20012;-87
2022/01/23 06:01:55;;;;;;;;;;;7.90;95.30;;;;;;4981295;28;19928;-87
2022/01/23 06:04:22;;;;;;;;;;;7.90;95.30;;;;;;4953826;28;19956;-87
2022/01/23 06:06:51;;;;;;;;;;;7.90;95.30;;;;;;4961363;28;19944;-87
2022/01/23 06:09:19;;;;;;;;;;;7.90;95.30;;;;;;4986550;28;20379;-87
2022/01/23 06:11:44;;;;;;;;;;;7.90;95.30;;;;;;4986880;28;20525;-87
2022/01/23 06:14:10;;;;;;;;;;;7.90;95.30;;;;;;4991809;28;19979;-87
2022/01/23 06:16:37;;;;;;;;;;;7.90;95.30;;;;;;4972202;28;19913;-87
2022/01/23 06:19:02;;;;;;;;;;;7.90;95.30;;;;;;4963507;28;20004;-87
2022/01/23 06:21:28;;;;;;;;;;;7.90;95.30;;;;;;4993460;28;20031;-87
2022/01/23 06:26:41;;;;;;;;;;;8.00;95.30;;;;;;5012069;28;19925;-87
2022/01/23 06:29:06;;;;;;;;;;;7.90;95.30;;;;;;4972267;28;20370;-87
2022/01/23 06:31:32;;;;;;;;;;;7.90;95.30;;;;;;4982860;28;19963;-87
2022/01/23 06:33:59;;;;;;;;;;;8.00;95.30;;;;;;4961520;28;20004;-87
2022/01/23 06:36:24;;;;;;;;;;;7.90;95.30;;;;;;4975453;28;20290;-87
2022/01/23 06:38:50;;;;;;;;;;;7.90;95.40;;;;;;4976263;28;20145;-87
2022/01/23 06:41:16;;;;;;;;;;;7.90;95.30;;;;;;4987404;28;19914;-87
2022/01/23 06:43:41;;;;;;;;;;;7.90;95.30;;;;;;4974805;28;19933;-87
2022/01/23 06:46:06;;;;;;;;;;;7.90;95.30;;;;;;5002854;28;20360;-87
2022/01/23 06:48:32;;;;;;;;;;;7.90;95.30;;;;;;4983355;28;19914;-87
2022/01/23 06:50:57;;;;;;;;;;;7.90;95.30;;;;;;4987278;28;19956;-87
2022/01/23 06:53:23;;;;;;;;;;;7.90;95.30;;;;;;4993001;28;19957;-87
2022/01/23 06:55:49;;;;;;;;;;;7.90;95.30;;;;;;4962746;28;20312;-87
2022/01/23 06:58:14;;;;;;;;;;;7.90;95.30;;;;;;4985226;28;19913;-87
2022/01/23 07:00:40;;;;;;;;;;;7.90;95.60;;;;;;4988603;28;19920;-87
2022/01/23 07:03:05;;;;;;;;;;;7.90;95.30;;;;;;4987394;28;19918;-87
2022/01/23 07:05:31;;;;;;;;;;;7.90;95.30;;;;;;4979524;28;20378;-87
2022/01/23 07:07:56;;;;;;;;;;;7.90;95.30;;;;;;4979473;28;20107;-87
2022/01/23 07:10:23;;;;;;;;;;;7.90;95.30;;;;;;4999390;28;19918;-87
2022/01/23 07:12:49;;;;;;;;;;;7.90;95.30;;;;;;4965578;28;19921;-87
2022/01/23 07:15:15;;;;;;;;;;;7.90;95.30;;;;;;4992049;28;20125;-87
2022/01/23 07:17:43;;;;;;;;;;;7.80;95.30;;;;;;4970046;28;20531;-87
2022/01/23 07:20:09;;;;;;;;;;;7.90;95.40;;;;;;4990302;28;20706;-87
2022/01/23 07:22:35;;;;;;;;;;;7.90;95.40;;;;;;4966730;28;19960;-87
2022/01/23 07:25:02;;;;;;;;;;;7.90;95.40;;;;;;4984435;28;20411;-87
2022/01/23 07:27:32;;;;;;;;;;;7.90;95.40;;;;;;4964412;28;19913;-87
2022/01/23 07:29:57;;;;;;;;;;;7.90;95.40;;;;;;4972148;28;20153;-87
2022/01/23 07:32:23;;;;;;;;;;;7.90;95.40;;;;;;4972955;28;20202;-87
2022/01/23 07:34:48;;;;;;;;;;;7.90;95.40;;;;;;4971915;28;20128;-87
2022/01/23 07:37:15;;;;;;;;;;;7.80;95.40;;;;;;4964024;28;19924;-87
2022/01/23 07:39:41;;;;;;;;;;;7.80;95.40;;;;;;4975187;28;20426;-87
2022/01/23 07:42:06;;;;;;;;;;;7.80;95.50;;;;;;4992520;28;19918;-87
2022/01/23 07:44:32;;;;;;;;;;;7.80;95.40;;;;;;4978708;28;19983;-87
2022/01/23 07:46:57;;;;;;;;;;;7.80;95.50;;;;;;4981381;28;20397;-87
2022/01/23 07:49:23;;;;;;;;;;;7.80;95.40;;;;;;4996275;28;20009;-87
2022/01/23 07:51:49;;;;;;;;;;;7.80;95.40;;;;;;4974354;28;20110;-87
2022/01/23 07:54:15;;;;;;;;;;;7.90;95.50;;;;;;4989848;28;20024;-87
2022/01/23 07:56:42;;;;;;;;;;;7.80;95.50;;;;;;4990989;28;19921;-87
2022/01/23 07:59:09;;;;;;;;;;;7.90;95.50;;;;;;4978951;28;20507;-87
2022/01/23 08:01:38;;;;;;;;;;;7.80;95.50;;;;;;4996424;28;19921;-87
2022/01/23 08:04:07;;;;;;;;;;;7.80;95.50;;;;;;4991975;28;19997;-87
2022/01/23 08:06:39;;;;;;;;;;;7.80;95.50;;;;;;4983163;28;19918;-87
2022/01/23 08:09:05;;;;;;;;;;;7.80;95.50;;;;;;4969993;28;19921;-87
2022/01/23 08:11:30;;;;;;;;;;;7.80;95.50;;;;;;4981296;28;19910;-87
2022/01/23 08:13:56;;;;;;;;;;;7.80;95.50;;;;;;4963929;28;21555;-87
2022/01/23 08:16:21;;;;;;;;;;;7.90;95.50;;;;;;4982842;28;19925;-87
2022/01/23 08:18:47;;;;;;;;;;;7.80;95.50;;;;;;4970948;28;19921;-87
2022/01/23 08:21:12;;;;;;;;;;;7.80;95.50;;;;;;4983458;28;19921;-87
2022/01/23 08:23:38;;;;;;;;;;;7.80;95.50;;;;;;4961440;28;20246;-87
2022/01/23 08:26:05;;;;;;;;;;;7.80;95.50;;;;;;4993625;28;19914;-87
2022/01/23 08:28:30;;;;;;;;;;;7.80;95.50;;;;;;4995910;28;19929;-87
2022/01/23 08:30:56;;;;;;;;;;;7.90;95.50;;;;;;4964820;28;20260;-87
2022/01/23 08:33:21;;;;;;;;;;;7.80;95.50;;;;;;4997257;28;19917;-87
2022/01/23 08:35:47;;;;;;;;;;;7.80;95.50;;;;;;4978847;28;20168;-87
2022/01/23 08:38:16;;;;;;;;;;;7.80;95.50;;;;;;4986520;28;19957;-87
2022/01/23 08:43:07;;;;;;;;;;;7.90;95.60;;;;;;4995122;28;19921;-87
2022/01/23 08:45:32;;;;;;;;;;;7.90;95.60;;;;;;4965908;28;20307;-87
2022/01/23 08:47:58;;;;;;;;;;;7.90;95.60;;;;;;4994643;28;19914;-87
2022/01/23 08:50:23;;;;;;;;;;;7.90;95.60;;;;;;4990286;28;19968;-87
2022/01/23 08:52:49;;;;;;;;;;;7.90;95.60;;;;;;4978778;28;20615;-87
2022/01/23 08:55:15;;;;;;;;;;;7.90;95.60;;;;;;5003056;28;19910;-87
2022/01/23 08:57:40;;;;;;;;;;;7.90;95.60;;;;;;4979014;28;20093;-87
2022/01/23 09:00:06;;;;;;;;;;;8.00;95.70;;;;;;5000370;28;19913;-87
2022/01/23 09:02:32;;;;;;;;;;;8.00;95.70;;;;;;4975024;28;19922;-87
2022/01/23 09:04:59;;;;;;;;;;;8.00;95.70;;;;;;4996900;28;20637;-87
2022/01/23 09:07:24;;;;;;;;;;;8.00;95.70;;;;;;4978163;28;19914;-87
2022/01/23 09:09:50;;;;;;;;;;;8.00;95.60;;;;;;4955717;28;20228;-87
2022/01/23 09:12:42;;;;;;;;;;;8.00;95.60;;;;;;5005038;28;20393;-87
2022/01/23 09:15:08;;;;;;;;;;;8.00;95.60;;;;;;5007334;28;20005;-87
2022/01/23 09:17:34;;;;;;;;;;;8.00;95.60;;;;;;4960496;28;19925;-87
2022/01/23 09:20:00;;;;;;;;;;;8.00;95.70;;;;;;4984312;28;19918;-87
2022/01/23 09:22:29;;;;;;;;;;;8.10;95.70;;;;;;4979159;28;20241;-87
2022/01/23 09:24:56;;;;;;;;;;;8.00;95.70;;;;;;4985827;28;20325;-87
2022/01/23 09:27:21;;;;;;;;;;;8.10;95.70;;;;;;4962912;28;20787;-87
2022/01/23 09:29:50;;;;;;;;;;;8.10;95.70;;;;;;4980160;28;19918;-87
2022/01/23 09:32:17;;;;;;;;;;;8.10;95.70;;;;;;4967518;28;19920;-87
2022/01/23 09:34:43;;;;;;;;;;;8.10;95.70;;;;;;4978120;28;19944;-87
2022/01/23 09:37:10;;;;;;;;;;;8.10;95.80;;;;;;4969136;28;19925;-87
2022/01/23 09:39:37;;;;;;;;;;;8.10;95.70;;;;;;4988197;28;20118;-87
2022/01/23 09:42:06;;;;;;;;;;;8.20;95.80;;;;;;4982262;28;19996;-87
2022/01/23 09:44:36;;;;;;;;;;;8.20;95.80;;;;;;4973682;28;19925;-87
2022/01/23 09:47:02;;;;;;;;;;;8.20;95.80;;;;;;4994934;28;19917;-87
2022/01/23 09:49:29;;;;;;;;;;;8.20;95.80;;;;;;4978613;28;20208;-87
2022/01/23 09:51:57;;;;;;;;;;;8.20;95.80;;;;;;4973207;28;20120;-87
2022/01/23 09:54:23;;;;;;;;;;;8.20;95.80;;;;;;4998430;28;20346;-87
2022/01/23 09:56:49;;;;;;;;;;;8.30;95.80;;;;;;4971838;28;20122;-87
2022/01/23 09:59:15;;;;;;;;;;;8.30;95.80;;;;;;4981991;28;19914;-87
2022/01/23 10:01:41;;;;;;;;;;;8.30;95.80;;;;;;4975376;28;19913;-87
2022/01/23 10:04:06;;;;;;;;;;;8.30;95.80;;;;;;4968446;28;20358;-87
2022/01/23 10:06:32;;;;;;;;;;;8.30;95.80;;;;;;4975112;28;19979;-87
2022/01/23 10:08:59;;;;;;;;;;;8.30;95.80;;;;;;4982597;28;19914;-87
2022/01/23 10:11:26;;;;;;;;;;;8.30;95.80;;;;;;4969020;28;20017;-87
2022/01/23 10:13:52;;;;;;;;;;;8.30;95.80;;;;;;4974549;28;19913;-87
2022/01/23 10:16:17;;;;;;;;;;;8.30;95.80;;;;;;4991871;28;19924;-87
2022/01/23 10:18:43;;;;;;;;;;;8.30;95.80;;;;;;4979876;28;19921;-87
2022/01/23 10:21:10;;;;;;;;;;;8.40;95.80;;;;;;4975099;28;20020;-87
2022/01/23 10:23:36;;;;;;;;;;;8.40;95.80;;;;;;4968117;28;19921;-87
2022/01/23 10:26:04;;;;;;;;;;;8.40;95.80;;;;;;4993169;28;20096;-87
2022/01/23 10:28:31;;;;;;;;;;;8.40;95.80;;;;;;4957329;28;19981;-87
2022/01/23 10:31:00;;;;;;;;;;;8.40;95.80;;;;;;5004808;28;20434;-87
2022/01/23 10:33:27;;;;;;;;;;;8.40;95.90;;;;;;4952161;28;20008;-87
2022/01/23 10:36:01;;;;;;;;;;;8.40;95.80;;;;;;4987108;28;19918;-87
2022/01/23 10:38:29;;;;;;;;;;;8.50;95.80;;;;;;4965523;28;20291;-87
2022/01/23 10:41:08;;;;;;;;;;;8.50;95.80;;;;;;4959524;28;19921;-87
2022/01/23 10:49:02;;;;;;;;;;;8.50;95.80;;;;;;4958145;28;20469;-87
2022/01/23 10:51:28;;;;;;;;;;;8.60;95.90;;;;;;4936369;28;19928;-87
2022/01/23 10:53:58;;;;;;;;;;;8.60;95.90;;;;;;4951441;28;20286;-87
2022/01/23 10:56:24;;;;;;;;;;;8.60;95.90;;;;;;4969171;28;20426;-87
2022/01/23 10:58:59;;;;;;;;;;;8.60;95.90;;;;;;4947792;28;20395;-87
2022/01/23 11:01:27;;;;;;;;;;;8.60;95.90;;;;;;4957908;28;19959;-87
2022/01/23 11:04:03;;;;;;;;;;;8.60;95.80;;;;;;4958061;28;20025;-87
2022/01/23 11:06:29;;;;;;;;;;;8.70;96.10;;;;;;4928842;28;20016;-87
2022/01/23 11:09:09;;;;;;;;;;;8.70;95.80;;;;;;4931542;28;19914;-87
2022/01/23 11:11:39;;;;;;;;;;;8.70;95.80;;;;;;4940732;28;19930;-87
2022/01/23 11:19:43;;;;;;;;;;;8.70;95.90;;;;;;4959157;28;20327;-87
2022/01/23 11:22:25;;;;;;;;;;;8.70;95.90;;;;;;4957182;28;19960;-87
2022/01/23 11:24:52;;;;;;;;;;;8.70;96.20;;;;;;4937366;28;19921;-87
2022/01/23 11:27:20;;;;;;;;;;;8.70;95.90;;;;;;4979354;28;19968;-87
2022/01/23 11:30:01;;;;;;;;;;;8.70;95.90;;;;;;4963723;28;20175;-87
2022/01/23 11:32:29;;;;;;;;;;;8.80;95.90;;;;;;4964782;28;19925;-87
2022/01/23 11:34:59;;;;;;;;;;;8.80;95.90;;;;;;4932982;28;19939;-87
2022/01/23 11:37:26;;;;;;;;;;;8.80;95.90;;;;;;4974471;28;19940;-87
2022/01/23 11:39:57;;;;;;;;;;;8.90;96.00;;;;;;4984988;28;20438;-87
2022/01/23 11:56:25;;;;;;;;;;;8.90;95.80;;;;;;4988598;28;19913;-87
2022/01/23 11:58:55;;;;;;;;;;;8.90;95.80;;;;;;4976213;28;19921;-87
2022/01/23 12:01:24;;;;;;;;;;;8.90;95.80;;;;;;4995152;28;19925;-87
2022/01/23 12:04:21;;;;;;;;;;;9.00;95.80;;;;;;4968299;28;20028;-87
2022/01/23 12:07:05;;;;;;;;;;;9.00;95.80;;;;;;4971041;28;20289;-87
2022/01/23 12:09:31;;;;;;;;;;;9.00;95.80;;;;;;4974249;28;20650;-87
2022/01/23 12:12:03;;;;;;;;;;;9.00;95.80;;;;;;4969572;28;20060;-87
2022/01/23 12:17:02;;;;;;;;;;;9.00;95.80;;;;;;5002134;28;20556;-87
2022/01/23 12:19:29;;;;;;;;;;;9.00;95.80;;;;;;4984901;28;20000;-87
2022/01/23 12:21:58;;;;;;;;;;;9.00;95.80;;;;;;4981314;28;20264;-87
2022/01/23 12:24:25;;;;;;;;;;;9.10;95.80;;;;;;4994405;28;19921;-87
2022/01/23 12:26:52;;;;;;;;;;;9.10;95.90;;;;;;4980896;28;20414;-87
2022/01/23 12:29:25;;;;;;;;;;;9.10;95.80;;;;;;4990554;28;19917;-87
2022/01/23 12:32:10;;;;;;;;;;;9.10;95.90;;;;;;4991356;28;20083;-87
2022/01/23 12:35:05;;;;;;;;;;;9.20;95.90;;;;;;4998346;28;19925;-87
2022/01/23 12:37:50;;;;;;;;;;;9.20;95.90;;;;;;4932112;28;20339;-87
2022/01/23 12:40:31;;;;;;;;;;;9.20;95.90;;;;;;4996701;28;19945;-87
2022/01/23 12:43:08;;;;;;;;;;;9.20;95.90;;;;;;4993903;28;19947;-87
2022/01/23 12:45:52;;;;;;;;;;;9.20;95.90;;;;;;4980536;28;19967;-87
2022/01/23 12:48:31;;;;;;;;;;;9.20;95.90;;;;;;4957967;28;20266;-87
2022/01/23 12:50:58;;;;;;;;;;;9.20;95.90;;;;;;4977381;28;20410;-87
2022/01/23 12:53:38;;;;;;;;;;;9.30;95.90;;;;;;4971854;28;20444;-87
2022/01/23 12:56:04;;;;;;;;;;;9.20;95.90;;;;;;4969430;28;20482;-87
2022/01/23 12:58:33;;;;;;;;;;;9.30;95.90;;;;;;4986953;28;20000;-87
2022/01/23 13:01:01;;;;;;;;;;;9.20;95.80;;;;;;4974127;28;19921;-87
2022/01/23 13:03:27;;;;;;;;;;;9.30;95.90;;;;;;4979479;28;20445;-87
2022/01/23 13:05:52;;;;;;;;;;;9.30;95.90;;;;;;4991284;28;19922;-87
2022/01/23 13:08:27;;;;;;;;;;;9.30;95.80;;;;;;4961685;28;20490;-87
2022/01/23 13:16:30;;;;;;;;;;;9.40;95.80;;;;;;4996450;28;19940;-87
2022/01/23 13:35:11;;;;;;;;;;;9.40;95.70;;;;;;4980035;28;20500;-87
2022/01/23 13:37:38;;;;;;;;;;;9.50;95.70;;;;;;4971533;28;19928;-87
2022/01/23 13:40:15;;;;;;;;;;;9.50;95.70;;;;;;4972266;28;19924;-87
2022/01/23 13:53:36;;;;;;;;;;;9.60;95.40;;;;;;4999684;28;20135;-87
2022/01/23 13:59:12;;;;;;;;;;;9.60;95.40;;;;;;4977836;28;19975;-87
2022/01/23 14:01:55;;;;;;;;;;;9.60;95.40;;;;;;4982957;28;19918;-87
2022/01/23 14:04:22;;;;;;;;;;;9.60;95.40;;;;;;4987476;28;20414;-87
2022/01/23 14:06:48;;;;;;;;;;;9.60;95.40;;;;;;4964528;28;20355;-87
2022/01/23 14:09:14;;;;;;;;;;;9.60;95.30;;;;;;4965349;28;20189;-87
2022/01/23 14:11:39;;;;;;;;;;;9.60;95.30;;;;;;4976669;28;20260;-87
2022/01/23 14:14:13;;;;;;;;;;;9.60;95.30;;;;;;4974531;28;20303;-87
2022/01/23 14:16:39;;;;;;;;;;;9.60;95.20;;;;;;4991348;28;19925;-87
2022/01/23 14:19:14;;;;;;;;;;;9.60;95.20;;;;;;4989286;28;20306;-87
2022/01/23 14:21:40;;;;;;;;;;;9.60;95.20;;;;;;4995878;28;20374;-87
2022/01/23 14:24:06;;;;;;;;;;;9.60;95.20;;;;;;4961391;28;20379;-87
2022/01/23 14:26:31;;;;;;;;;;;9.60;95.20;;;;;;4981227;28;20046;-87
2022/01/23 14:29:02;;;;;;;;;;;9.60;95.20;;;;;;4976377;28;20141;-87
2022/01/23 14:31:36;;;;;;;;;;;9.60;95.20;;;;;;4965654;28;20311;-87
2022/01/23 14:34:03;;;;;;;;;;;9.60;95.20;;;;;;4971542;28;20326;-87
2022/01/23 14:36:31;;;;;;;;;;;9.60;95.30;;;;;;4967683;28;21473;-87
2022/01/23 14:39:01;;;;;;;;;;;9.60;95.20;;;;;;4953710;28;19921;-87
2022/01/23 14:41:28;;;;;;;;;;;9.60;95.20;;;;;;4952724;28;20015;-87
2022/01/23 14:43:53;;;;;;;;;;;9.60;95.20;;;;;;4975326;28;19925;-87
2022/01/23 14:46:19;;;;;;;;;;;9.60;95.20;;;;;;4968778;28;20409;-87
2022/01/23 14:48:47;;;;;;;;;;;9.60;95.20;;;;;;4964716;28;19918;-87
2022/01/23 14:51:21;;;;;;;;;;;9.60;95.20;;;;;;4972980;28;20513;-87
2022/01/23 14:53:48;;;;;;;;;;;9.60;95.20;;;;;;4960679;28;19925;-87
2022/01/23 15:19:26;;;;;;;17.55;8.20;;;8.90;93.50;;;;;;4929684;28;21169;-91
2022/01/23 15:21:52;;;;;;;16.53;7.67;;;10.40;96.00;;;;;;4970032;28;20125;-91
2022/01/23 15:24:17;;;;;;;12.50;6.47;;;10.40;95.30;;;;;;4970075;28;20082;-91
2022/01/23 15:26:43;;;;;;;12.88;6.43;;;10.40;94.70;;;;;;4952611;28;20485;-88
2022/01/23 15:29:09;;;;;;;10.00;5.93;;;10.40;94.50;;;;;;4931689;28;20478;-87
2022/01/23 15:31:36;;;;;;;13.70;6.65;;;10.40;94.30;;;;;;4972537;28;20117;-88
2022/01/23 15:34:02;;;;;;;10.77;6.03;;;10.30;94.20;;;;;;4957065;28;20094;-88
2022/01/23 15:36:29;;;;;;;8.53;4.67;;;10.20;94.00;;;;;;4936053;28;20039;-91
2022/01/23 15:38:55;;;;;;;10.40;5.55;;;10.10;94.00;;;;;;4925904;28;20091;-91
2022/01/23 15:41:20;;;;;;;12.88;6.18;;;10.10;94.10;;;;;;4956108;28;20027;-91
2022/01/23 15:43:46;;;;;;;13.17;6.40;;;10.00;94.10;;;;;;4966914;28;20043;-91
2022/01/23 15:46:13;;;;;;;11.80;6.25;;;9.90;94.10;;;;;;4965151;28;20212;-91
2022/01/23 15:48:39;;;;;;;12.48;6.20;;;9.80;94.20;;;;;;4968988;28;20081;-91
2022/01/23 15:51:05;;;;;;;12.30;6.88;;;9.80;94.20;;;;;;4954604;28;20027;-91
2022/01/23 15:53:31;;;;;;;11.07;6.23;;;9.70;94.20;;;;;;4978874;28;20287;-91
2022/01/23 15:55:57;;;;;;;13.90;7.30;;;9.60;94.30;;;;;;4929947;28;20118;-90
2022/01/23 15:58:23;;;;;;;11.77;5.97;;;9.60;94.30;;;;;;4962225;28;20118;-91
2022/01/23 16:00:49;;;;;;;10.10;5.90;;;9.50;94.40;;;;;;4914802;28;20035;-91
2022/01/23 16:03:14;;;;;;;10.65;6.15;;;9.40;94.40;;;;;;4954372;28;20032;-91
2022/01/23 16:05:40;;;;;;;10.37;6.07;;;9.40;94.40;;;;;;4929004;28;20341;-91
2022/01/23 16:08:06;;;;;;;11.50;6.50;;;9.30;94.40;;;;;;4933119;28;20322;-91
2022/01/23 16:10:32;;;;;;;9.63;5.03;;;9.30;94.40;;;;;;4923938;28;20031;-91
2022/01/23 16:12:57;;;;;;;8.60;4.87;;;9.20;94.40;;;;;;4919245;28;20295;-91
2022/01/23 16:15:23;;;;;;;9.30;5.03;;;9.20;94.50;;;;;;4923886;28;20540;-91
2022/01/23 16:17:50;;;;;;;8.10;4.20;;;9.20;94.50;;;;;;4948660;28;20075;-91
2022/01/23 16:20:17;;;;;;;8.32;4.50;;;9.10;94.50;;;;;;4928338;28;20484;-91
2022/01/23 16:22:44;;;;;;;9.40;5.13;;;9.10;94.60;;;;;;4925864;28;20035;-91
2022/01/23 16:25:11;;;;;;;9.18;4.82;;;9.10;94.60;;;;;;4934725;28;20087;-91
2022/01/23 16:27:37;;;;;;;10.40;5.10;;;9.10;94.70;;;;;;4932960;28;20249;-91
2022/01/23 16:30:05;;;;;;;9.90;4.97;;;9.00;94.70;;;;;;4928580;28;20063;-91
2022/01/23 16:32:31;;;;;;;10.55;5.22;;;9.00;94.70;;;;;;4939063;28;20065;-91
2022/01/23 16:34:57;;;;;;;11.30;6.10;;;9.00;94.70;;;;;;4959108;28;20035;-91
2022/01/23 16:37:22;;;;;;;11.43;6.50;;;9.00;94.70;;;;;;4950811;28;20604;-91
2022/01/23 16:39:48;;;;;;;10.95;5.93;;;9.00;94.80;;;;;;4947694;28;20026;-91
2022/01/23 16:42:14;;;;;;;11.37;6.13;;;8.90;94.80;;;;;;4925209;28;20492;-91
2022/01/23 16:44:40;;;;;;;10.68;5.88;;;8.90;94.80;;;;;;4947038;28;21551;-91
2022/01/23 16:47:07;;;;;;;8.57;4.50;;;8.90;94.80;;;;;;4956534;28;20039;-91
2022/01/23 16:49:33;;;;;;;8.20;4.70;;;8.90;94.80;;;;;;4967605;28;20496;-91
2022/01/23 16:51:59;;;;;;;8.30;4.35;;;8.90;94.90;;;;;;4958059;28;20034;-91
2022/01/23 16:54:25;;;;;;;8.05;4.45;;;8.90;94.90;;;;;;4938694;28;20039;-91
2022/01/23 16:56:50;;;;;;;8.93;4.20;;;8.90;94.90;;;;;;4967492;28;20062;-88
2022/01/23 16:59:16;;;;;;;7.65;3.95;;;8.80;94.90;;;;;;4913398;28;20718;-88
2022/01/23 17:01:46;;;;;;;8.93;5.07;;;8.80;94.90;;;;;;4929463;28;20035;-88
2022/01/23 17:04:14;;;;;;;8.65;4.85;;;8.80;94.90;;;;;;4925141;28;20114;-88
2022/01/23 17:06:40;;;;;;;8.40;4.72;;;8.80;94.90;;;;;;4943349;28;20123;-88
2022/01/23 17:09:08;;;;;;;7.63;4.63;;;8.80;95.00;;;;;;4932544;28;20023;-88
2022/01/23 17:11:34;;;;;;;8.87;4.77;;;8.80;94.90;;;;;;4943960;28;20051;-88
2022/01/23 17:14:01;;;;;;;9.20;5.50;;;8.80;95.00;;;;;;4928665;28;20111;-88
2022/01/23 17:16:29;;;;;;;9.48;5.50;;;8.70;94.90;;;;;;4934096;28;20024;-88
2022/01/23 17:18:58;;;;;;;10.57;5.38;;;8.80;95.00;;;;;;4923137;28;20047;-89
2022/01/23 17:21:24;;;;;;;7.97;4.78;;;8.70;95.00;;;;;;4952905;28;20067;-88
2022/01/23 17:23:50;;;;;;;8.63;5.17;;;8.70;95.00;;;;;;4930132;28;20567;-91
2022/01/23 17:26:17;;;;;;;8.80;4.70;;;8.70;94.90;;;;;;4942985;28;20031;-91
2022/01/23 17:28:43;;;;;;;8.02;4.55;;;8.70;94.90;;;;;;4932337;28;20059;-91
2022/01/23 17:31:08;;;;;;;8.18;4.47;;;8.70;94.90;;;;;;4940085;28;20089;-91
2022/01/23 17:33:34;;;;;;;6.73;3.90;;;8.70;94.90;;;;;;4922148;28;20023;-91
2022/01/23 17:35:59;;;;;;;6.67;4.07;;;8.70;94.90;;;;;;4945268;28;20031;-91
2022/01/23 17:38:26;;;;;;;7.53;4.40;;;8.70;94.90;;;;;;4938070;28;20295;-91
2022/01/23 17:40:52;;;;;;;7.40;4.10;;;8.70;94.90;;;;;;4930336;28;20027;-91
2022/01/23 17:43:17;;;;;;;6.83;4.17;;;8.70;94.90;;;;;;4930400;28;20473;-91
2022/01/23 17:45:54;;;;;;;8.37;4.40;;;8.60;94.90;;;;;;4932541;28;20747;-91
2022/01/23 17:50:57;;;;;;;7.88;4.63;;;8.70;94.90;;;;;;4933965;28;20047;-91
2022/01/23 17:53:23;;;;;;;7.43;4.50;;;8.70;94.90;;;;;;4938968;28;20310;-91
2022/01/23 17:55:49;;;;;;;9.23;4.47;;;8.70;95.20;;;;;;4931687;28;20028;-91
2022/01/23 17:58:15;;;;;;;8.20;5.10;;;8.70;94.90;;;;;;4932909;28;20059;-91
2022/01/23 18:00:42;;;;;;;8.77;4.27;;;8.60;94.90;;;;;;4933355;28;20287;-90
2022/01/23 18:03:07;;;;;;;8.00;4.22;;;8.60;94.90;;;;;;4961862;28;20020;-91
2022/01/23 18:05:34;;;;;;;8.20;4.32;;;8.60;94.90;;;;;;4950129;28;20821;-90
2022/01/23 18:08:04;;;;;;;7.88;4.40;;;8.60;94.90;;;;;;4948918;28;20032;-91
2022/01/23 18:10:30;;;;;;;6.88;4.03;;;8.60;94.70;;;;;;4928904;28;20330;-91